Lac St. Pierre, Canada
Current Conditions -  °F | °C
As of 6:15 AM on Friday 28 Nov 2014 (Local Time) from KFSO Reporting Station
Light Snow Light Snow  
Wind Chill: 19°   Ceiling: 1000
Heat Index: 24°   Visibility: 4mi
Dew Point: 22°   Wind: 5mph
Humidity: 90%   Direction: 260°W
Pressure: 30.08"   Gusts: NA
Location:  45.18°N, 72.92°W
Report Text: KFSO 281115Z AUTO 26004KT 4SM -SN SCT007 BKN010 OVC021 M04/M06 A3008 RMK AO2 T10421056
Loading
Personal Weather Stations






























Interactive Weather Map New forecast layout! Learn more

10-Day Weather Forecast

Advertisements
Track Severe Weather on mobile